Have a Safe July 4th! 

Flight Track Log - Related Links

Times and Time Zones

All times are in EDT time to prevent confusion due to time zone crossing. See the CSH9272 flight status page for this flight to view local times or setup timezone preferences in your user account.

Time Position Orientation Groundspeed Altitude Reporting Facility
EDT Latitude Longitude Course Direction KTS MPH feet Rate Location/Type
Thu 05:11:00 AM 25.0944 118.3777 22° Northeast  Level Estimated
Thu 05:12:00 AM 25.1730 118.4136 22° Northeast  Level Estimated
Thu 05:13:00 AM 25.2516 118.4496 22° Northeast  Level Estimated
Thu 05:14:00 AM 25.3302 118.4856 22° Northeast  Level Estimated
Thu 05:15:00 AM 25.4087 118.5216 23° Northeast  Level Estimated
Thu 05:16:00 AM 25.4873 118.5577 23° Northeast  Level Estimated
Thu 05:17:00 AM 25.5658 118.5938 23° Northeast  Level Estimated
Thu 05:18:00 AM 25.6444 118.6300 23° Northeast  Level Estimated
Thu 05:19:00 AM 25.7229 118.6662 23° Northeast  Level Estimated
Thu 05:20:00 AM 25.8023 118.7029 23° Northeast  Level Estimated
Thu 05:21:00 AM 25.8818 118.7397 23° Northeast  Level Estimated
Thu 05:22:00 AM 25.9612 118.7765 23° Northeast  Level Estimated
Thu 05:23:00 AM 26.0407 118.8133 23° Northeast  Level Estimated
Thu 05:24:00 AM 26.1201 118.8503 23° Northeast  Level Estimated
Thu 05:25:00 AM 26.1995 118.8872 23° Northeast  Level Estimated
Thu 05:26:00 AM 26.2789 118.9242 23° Northeast  Level Estimated
Thu 05:27:00 AM 26.3583 118.9613 23° Northeast  Level Estimated
Thu 05:28:00 AM 26.4377 118.9984 23° Northeast  Level Estimated
Thu 05:29:00 AM 26.5170 119.0355 23° Northeast  Level Estimated
Thu 05:30:00 AM 26.5964 119.0727 23° Northeast  Level Estimated
Thu 05:31:00 AM 26.6757 119.1100 23° Northeast  Level Estimated
Thu 05:32:00 AM 26.7551 119.1473 23° Northeast  Level Estimated
Thu 05:33:00 AM 26.8344 119.1847 23° Northeast  Level Estimated
Thu 05:34:00 AM 26.9137 119.2221 23° Northeast  Level Estimated
Thu 05:35:00 AM 26.9930 119.2596 23° Northeast  Level Estimated
Thu 05:36:00 AM 27.0723 119.2971 23° Northeast  Level Estimated
Thu 05:37:00 AM 27.1516 119.3347 23° Northeast  Level Estimated
Thu 05:38:00 AM 27.2309 119.3723 23° Northeast  Level Estimated
Thu 05:39:00 AM 27.3102 119.4100 23° Northeast  Level Estimated
Thu 05:40:00 AM 27.3895 119.4477 23° Northeast  Level Estimated
Thu 05:41:00 AM 27.4687 119.4855 23° Northeast  Level Estimated
Thu 05:42:00 AM 27.5480 119.5234 23° Northeast  Level Estimated
Thu 05:43:00 AM 27.6272 119.5612 23° Northeast  Level Estimated
Thu 05:44:00 AM 27.7064 119.5992 23° Northeast  Level Estimated
Thu 05:45:00 AM 27.7856 119.6372 23° Northeast  Level Estimated
Thu 05:46:00 AM 27.8648 119.6753 23° Northeast  Level Estimated
Thu 05:47:00 AM 27.9440 119.7134 23° Northeast  Level Estimated
Thu 05:48:00 AM 28.0232 119.7516 23° Northeast  Level Estimated
Thu 05:49:00 AM 28.1024 119.7898 23° Northeast  Level Estimated
Thu 05:50:00 AM 28.1815 119.8281 23° Northeast  Level Estimated
Thu 05:51:00 AM 28.2607 119.8664 23° Northeast  Level Estimated
Thu 05:52:00 AM 28.3398 119.9048 23° Northeast  Level Estimated
Thu 05:53:00 AM 28.4189 119.9433 23° Northeast  Level Estimated
Thu 05:54:00 AM 28.4980 119.9818 23° Northeast  Level Estimated
Thu 05:55:00 AM 28.5771 120.0204 23° Northeast  Level Estimated
Thu 05:56:00 AM 28.6562 120.0590 23° Northeast  Level Estimated
Thu 05:57:00 AM 28.7353 120.0977 23° Northeast  Level Estimated
Thu 05:58:00 AM 28.8144 120.1365 23° Northeast  Level Estimated
Thu 05:59:00 AM 28.8934 120.1753 23° Northeast  Level Estimated
Thu 06:00:00 AM 28.9725 120.2142 23° Northeast  Level Estimated
Thu 06:01:00 AM 29.0515 120.2531 23° Northeast  Level Estimated
Thu 06:02:00 AM 29.1306 120.2921 23° Northeast  Level Estimated
Thu 06:03:00 AM 29.2096 120.3311 23° Northeast  Level Estimated
Thu 06:04:00 AM 29.2886 120.3702 23° Northeast  Level Estimated
Thu 06:05:00 AM 29.3676 120.4094 23° Northeast  Level Estimated
Thu 06:06:00 AM 29.4465 120.4486 23° Northeast  Level Estimated
Thu 06:07:00 AM 29.5255 120.4879 23° Northeast  Level Estimated
Thu 06:08:00 AM 29.6045 120.5273 23° Northeast  Level Estimated
Thu 06:09:00 AM 29.6834 120.5667 23° Northeast  Level Estimated
Thu 06:10:00 AM 29.7624 120.6062 23° Northeast  Level Estimated
Thu 06:11:00 AM 29.8413 120.6457 23° Northeast  Level Estimated
Thu 06:12:00 AM 29.9202 120.6853 24° Northeast  Level Estimated
Thu 06:13:00 AM 29.9991 120.7250 24° Northeast  Level Estimated
Thu 06:14:00 AM 30.0780 120.7647 24° Northeast  Level Estimated
Thu 06:15:00 AM 30.1569 120.8045 24° Northeast  Level Estimated
Thu 06:16:00 AM 30.2357 120.8443 24° Northeast  Level Estimated
Thu 06:17:00 AM 30.3146 120.8842 24° Northeast  Level Estimated
Thu 06:18:00 AM 30.3934 120.9242 24° Northeast  Level Estimated
Thu 06:19:00 AM 30.4722 120.9643 24° Northeast  Level Estimated
Thu 06:20:00 AM 30.5510 121.0044 24° Northeast  Level Estimated
Thu 06:21:00 AM 30.6298 121.0446 24° Northeast  Level Estimated
Thu 06:22:00 AM 30.7086 121.0848 24° Northeast  Level Estimated
Thu 06:23:00 AM 30.7874 121.1251 24° Northeast  Level Estimated
Thu 06:24:00 AM 30.8733 121.1692 24° Northeast  Level Estimated
Thu 06:25:00 AM 30.9592 121.2133 24° Northeast  Level Estimated
Thu 06:26:00 AM 31.0451 121.2575 24° Northeast  Level Estimated

Login

Don't have an account? Register now (free) for customized features, flight alerts, and more!